Spirit of St Louis Airport
KSUS : now visible

Airfield :











YOU CAN JOIN US ON...

 
LOGIN :

Register | Disclaimer

   EN    FR    IT 

 









Legend :    VFR   Marginal VFR   IFR   Intensive IFR   Very Intensive IFR
Visi :
Ceiling :
>= 8 km
>= 3000ft
5 to 8 km
1000 to 3000 ft
1500m to 5 km
500 to 1000 ft
800 to 1500m
200 to 500 ft
< 800m
< 200 ft
Symbols :   Thunderstorms  Fog  Heavy snow  Heavy precipitations  Wind > 20 kt







- Airport Elevation : 463 ft


KSUS - Spirit of St Louis

CURRENT METAR :
  • 260354Z AUTO 14005KT 10SM BKN007 OVC060 23/22 A2984 RMK AO2 SLP097 T02280217

EXPIRED METARs :
  • 260331Z 12004KT 10SM BKN007 BKN055 OVC065 23/21 A2984 RMK AO2 T02280211
  • 260305Z VRB05KT 10SM FEW009 BKN060 OVC075 22/21 A2985 RMK AO2 T02220211
  • 260254Z 11004KT 10SM FEW060 OVC070 22/21 A2985 RMK AO2 RAB0157E07 SLP102 P0000 60000 T02220211 58004
  • 260201Z 10004KT 10SM -RA FEW050 BKN080 OVC100 22/21 A2985 RMK AO2 RAB0157 P0000 T02170206
  • 260154Z 10005KT 10SM BKN008 OVC045 22/21 A2986 RMK AO2 SLP104 T02170206

TAF KSUS
Valid from the 26 at 03:00 until the 27 at 00:00 UTC


260305Z 2603/2624 12008KT 5SM -SHRA VCTS SCT012 OVC020CB
FM260600 12008KT 5SM -SHRA OVC012
FM260900 15005KT 5SM BR OVC008
FM261600 18008KT P6SM BKN015
FM261900 19009KT P6SM SCT040
No reported NOTAMs for that airfield.



MET'MAP, your aeronautical weather chart ! - Copyright ORBIFLY December 2007 - Disclaimer

ORBIFLY MET'MAP TEAM :

Programming & Development : Alexandra Zaïnal
Concept & Development : Baudouin d'Aumeries
Co-Development & Prog : Marc-Olivier Méhu
Technical & hardware support : Manuel Goepfert

Contact : metmap@orbifly.com




SOURCES & CREDITS :

   NOAA       Earth
Advisory